createdAt,value
2019-05-03T00:01:58.109Z,88.46
2019-05-03T00:04:26.851Z,88.10
2019-05-03T00:06:55.641Z,88.00
2019-05-03T00:09:24.550Z,87.90
2019-05-03T00:11:53.319Z,87.88
2019-05-03T00:14:22.156Z,87.43
2019-05-03T00:16:52.220Z,86.66
2019-05-03T00:19:21.937Z,86.55
2019-05-03T00:21:52.553Z,86.36
2019-05-03T00:24:22.636Z,86.36
2019-05-03T00:26:51.713Z,85.49
2019-05-03T00:29:22.032Z,85.38
2019-05-03T00:31:51.725Z,85.18
2019-05-03T00:34:22.247Z,85.63
2019-05-03T00:36:55.294Z,85.33
2019-05-03T00:39:37.527Z,85.65
2019-05-03T00:42:06.385Z,85.39
2019-05-03T00:44:35.215Z,84.45
2019-05-03T00:47:03.965Z,85.53
2019-05-03T00:49:32.843Z,85.35
2019-05-03T00:52:02.319Z,85.14
2019-05-03T00:54:31.737Z,84.59
2019-05-03T00:57:02.527Z,83.27
2019-05-03T00:59:32.680Z,83.43
2019-05-03T01:02:02.675Z,84.11
2019-05-03T01:04:31.822Z,83.88
2019-05-03T01:07:02.242Z,83.74
2019-05-03T01:09:31.733Z,83.48
2019-05-03T01:12:01.954Z,82.86
2019-05-03T01:14:31.642Z,83.00
2019-05-03T01:17:02.560Z,82.98
2019-05-03T01:19:32.825Z,82.72
2019-05-03T01:22:02.026Z,82.41
2019-05-03T01:24:32.294Z,82.77
2019-05-03T01:27:01.949Z,81.59
2019-05-03T01:29:32.210Z,82.15
2019-05-03T01:32:02.296Z,81.48
2019-05-03T01:34:32.625Z,80.60
2019-05-03T01:37:02.581Z,79.92
2019-05-03T01:39:31.800Z,79.50
2019-05-03T01:42:02.494Z,80.30
2019-05-03T01:44:32.700Z,79.71
2019-05-03T01:47:03.227Z,79.45
2019-05-03T01:49:33.544Z,79.45
2019-05-03T01:52:16.114Z,78.94
2019-05-03T01:54:44.854Z,79.55
2019-05-03T01:57:13.651Z,78.71
2019-05-03T01:59:42.654Z,79.28
2019-05-03T02:02:13.934Z,79.48
2019-05-03T02:04:44.328Z,79.42
2019-05-03T02:07:13.169Z,79.35
2019-05-03T02:09:41.928Z,79.64
2019-05-03T02:12:12.632Z,78.45
2019-05-03T02:14:42.247Z,79.29
2019-05-03T02:17:12.392Z,79.42
2019-05-03T02:19:42.198Z,79.45
2019-05-03T02:22:12.109Z,79.00
2019-05-03T02:24:42.268Z,79.52
2019-05-03T02:27:12.716Z,78.93
2019-05-03T02:29:41.901Z,79.17
2019-05-03T02:32:13.111Z,79.51
2019-05-03T02:34:43.892Z,79.54
2019-05-03T02:37:13.897Z,78.57
2019-05-03T02:39:42.789Z,78.27
2019-05-03T02:42:12.072Z,78.20
2019-05-03T02:44:41.257Z,79.37
2019-05-03T02:47:15.924Z,79.89
2019-05-03T02:49:46.379Z,80.08
2019-05-03T02:52:35.798Z,78.71
2019-05-03T02:55:10.460Z,77.74
2019-05-03T02:57:39.254Z,78.10
2019-05-03T03:00:10.425Z,78.57
2019-05-03T03:02:40.897Z,79.20
2019-05-03T03:05:10.202Z,80.10
2019-05-03T03:07:40.643Z,80.45
2019-05-03T03:10:09.756Z,80.89
2019-05-03T03:12:42.327Z,81.04
2019-05-03T03:15:11.207Z,81.85
2019-05-03T03:17:41.786Z,82.21
2019-05-03T03:20:11.033Z,82.19
2019-05-03T03:22:45.303Z,81.93
2019-05-03T03:25:17.638Z,82.35
2019-05-03T03:27:48.162Z,82.72
2019-05-03T03:30:39.474Z,83.22
2019-05-03T03:33:11.233Z,83.51
2019-05-03T03:35:41.309Z,83.97
2019-05-03T03:38:10.289Z,83.54
2019-05-03T03:40:40.582Z,83.79
2019-05-03T03:43:10.880Z,83.88
2019-05-03T03:45:39.908Z,83.75
2019-05-03T03:48:10.748Z,84.13
2019-05-03T03:50:45.591Z,83.84
2019-05-03T03:53:15.276Z,84.48
2019-05-03T03:55:46.429Z,84.65
2019-05-03T03:58:21.957Z,84.62
2019-05-03T04:00:46.880Z,84.49
2019-05-03T04:03:15.984Z,84.39
2019-05-03T04:05:55.602Z,83.94
2019-05-03T04:08:25.841Z,84.07
2019-05-03T04:10:55.959Z,84.15
2019-05-03T04:13:25.666Z,83.49
2019-05-03T04:16:12.308Z,83.26
2019-05-03T04:18:45.429Z,83.00
2019-05-03T04:21:16.047Z,83.18
2019-05-03T04:23:45.867Z,82.35
2019-05-03T04:26:16.332Z,82.40
2019-05-03T04:28:45.484Z,82.99
2019-05-03T04:31:15.251Z,82.56
2019-05-03T04:33:47.350Z,82.68
2019-05-03T04:36:16.698Z,82.44
2019-05-03T04:38:45.700Z,82.17
2019-05-03T04:41:15.918Z,80.92
2019-05-03T04:43:45.983Z,80.23
2019-05-03T04:46:22.255Z,79.20
2019-05-03T04:48:51.919Z,78.34
2019-05-03T04:51:20.737Z,76.99
2019-05-03T04:53:51.165Z,72.67
2019-05-03T04:56:19.901Z,69.55
2019-05-03T04:58:48.781Z,64.44
2019-05-03T05:01:17.511Z,59.18
2019-05-03T05:03:46.397Z,56.49
2019-05-03T05:06:16.035Z,50.99
2019-05-03T05:08:46.094Z,48.21
2019-05-03T05:11:17.834Z,46.47
2019-05-03T05:14:00.206Z,45.94
2019-05-03T05:16:29.951Z,45.50
2019-05-03T05:19:06.033Z,45.96
2019-05-03T05:21:39.513Z,44.91
2019-05-03T05:24:08.259Z,45.47
2019-05-03T05:26:44.783Z,45.06
2019-05-03T05:29:18.205Z,46.41
2019-05-03T05:31:46.934Z,48.87
2019-05-03T05:34:15.714Z,48.99
2019-05-03T05:36:45.058Z,54.07
2019-05-03T05:39:18.502Z,53.49
2019-05-03T05:41:45.990Z,52.67
2019-05-03T05:44:14.780Z,52.26
2019-05-03T05:46:51.161Z,50.11
2019-05-03T05:49:45.965Z,48.04
2019-05-03T05:52:15.480Z,48.04
2019-05-03T05:54:45.999Z,45.66
2019-05-03T05:57:25.701Z,44.37
2019-05-03T05:59:56.104Z,45.04
2019-05-03T06:02:25.380Z,44.17
2019-05-03T06:04:54.457Z,42.86
2019-05-03T06:07:30.637Z,45.15
2019-05-03T06:10:07.191Z,44.59
2019-05-03T06:12:45.301Z,42.87
2019-05-03T06:15:31.527Z,46.03
2019-05-03T06:18:01.889Z,45.81
2019-05-03T06:20:34.977Z,47.01
2019-05-03T06:23:05.367Z,49.07
2019-05-03T06:25:35.763Z,48.74
2019-05-03T06:28:17.663Z,47.61
2019-05-03T06:30:41.805Z,47.94
2019-05-03T06:33:10.550Z,49.05
2019-05-03T06:35:39.321Z,49.81
2019-05-03T06:38:08.075Z,49.54
2019-05-03T06:40:36.888Z,49.63
2019-05-03T06:43:09.727Z,48.99
2019-05-03T06:45:36.129Z,46.69
2019-05-03T06:48:05.559Z,47.36
2019-05-03T06:50:34.807Z,46.99
2019-05-03T06:53:05.797Z,48.82
2019-05-03T06:55:35.103Z,45.94
2019-05-03T06:58:05.249Z,44.63
2019-05-03T07:00:35.598Z,44.63
2019-05-03T07:03:07.209Z,45.72
2019-05-03T07:05:49.647Z,46.53
2019-05-03T07:08:38.060Z,46.72
2019-05-03T07:11:08.287Z,50.59
2019-05-03T07:13:37.083Z,48.86
2019-05-03T07:16:05.891Z,50.83
2019-05-03T07:18:35.150Z,49.60
2019-05-03T07:21:04.870Z,52.29
2019-05-03T07:23:34.965Z,54.49
2019-05-03T07:26:05.363Z,55.86
2019-05-03T07:28:46.442Z,53.56
2019-05-03T07:31:04.966Z,51.49
2019-05-03T07:33:35.192Z,52.04
2019-05-03T07:36:05.388Z,54.23
2019-05-03T07:38:35.003Z,53.86
2019-05-03T07:41:05.254Z,53.34
2019-05-03T07:43:36.111Z,52.67
2019-05-03T07:46:05.710Z,53.13
2019-05-03T07:48:35.346Z,51.13
2019-05-03T07:51:05.615Z,49.95
2019-05-03T07:53:34.943Z,50.88
2019-05-03T07:56:05.489Z,51.17
2019-05-03T07:58:38.663Z,47.96
2019-05-03T08:01:10.103Z,46.65
2019-05-03T08:03:39.056Z,45.83
2019-05-03T08:06:07.810Z,47.08
2019-05-03T08:08:36.542Z,46.84
2019-05-03T08:11:05.464Z,45.09
2019-05-03T08:13:35.551Z,46.08
2019-05-03T08:16:05.841Z,42.21
2019-05-03T08:18:35.464Z,43.98
2019-05-03T08:21:05.779Z,43.63
2019-05-03T08:23:35.402Z,42.56
2019-05-03T08:26:06.104Z,42.33
2019-05-03T08:28:34.971Z,45.22
2019-05-03T08:31:23.901Z,44.92
2019-05-03T08:33:55.340Z,43.14
2019-05-03T08:36:24.774Z,39.99
2019-05-03T08:38:56.101Z,42.56
2019-05-03T08:41:25.685Z,43.69
2019-05-03T08:43:54.985Z,44.33
2019-05-03T08:46:25.323Z,47.21
2019-05-03T08:48:54.839Z,46.37
2019-05-03T08:51:24.970Z,47.00
2019-05-03T08:53:55.996Z,44.19
2019-05-03T08:56:24.679Z,42.81
2019-05-03T08:58:55.334Z,43.48
2019-05-03T09:01:25.208Z,39.78
2019-05-03T09:03:55.858Z,41.65
2019-05-03T09:06:24.902Z,42.33
2019-05-03T09:08:56.919Z,39.77
2019-05-03T09:11:33.306Z,40.57
2019-05-03T09:14:02.043Z,36.76
2019-05-03T09:16:30.808Z,38.87
2019-05-03T09:18:59.600Z,40.36
2019-05-03T09:21:28.488Z,39.51
2019-05-03T09:23:57.232Z,40.15
2019-05-03T09:26:29.165Z,39.82
2019-05-03T09:28:56.463Z,40.91
2019-05-03T09:31:25.239Z,41.56
2019-05-03T09:33:54.792Z,41.80
2019-05-03T09:36:25.261Z,43.25
2019-05-03T09:38:54.866Z,43.23
2019-05-03T09:41:25.579Z,43.98
2019-05-03T09:43:55.417Z,46.25
2019-05-03T09:46:26.419Z,46.64
2019-05-03T09:49:03.560Z,46.93
2019-05-03T09:51:25.745Z,44.70
2019-05-03T09:53:56.078Z,44.18
2019-05-03T09:56:53.017Z,43.25
2019-05-03T09:59:14.676Z,43.49
2019-05-03T10:01:45.422Z,40.81
2019-05-03T10:04:13.925Z,37.78
2019-05-03T10:06:45.130Z,37.09
2019-05-03T10:09:15.432Z,38.25
2019-05-03T10:11:45.819Z,39.15
2019-05-03T10:14:19.834Z,39.91
2019-05-03T10:16:50.835Z,39.42
2019-05-03T10:19:19.581Z,37.99
2019-05-03T10:21:48.829Z,37.97
2019-05-03T10:24:17.589Z,39.26
2019-05-03T10:26:46.383Z,36.97
2019-05-03T10:29:16.276Z,38.51
2019-05-03T10:31:47.200Z,38.80
2019-05-03T10:34:16.905Z,42.05
2019-05-03T10:36:46.723Z,43.20
2019-05-03T10:39:16.105Z,45.22
2019-05-03T10:41:45.422Z,44.37
2019-05-03T10:44:15.051Z,46.53
2019-05-03T10:46:45.328Z,46.11
2019-05-03T10:49:20.280Z,45.86
2019-05-03T10:51:54.978Z,45.74
2019-05-03T10:54:24.385Z,46.54
2019-05-03T10:57:01.341Z,47.08
2019-05-03T10:59:30.254Z,47.08
2019-05-03T11:02:06.489Z,45.33
2019-05-03T11:04:35.710Z,46.05
2019-05-03T11:07:08.137Z,44.62
2019-05-03T11:09:48.519Z,43.07
2019-05-03T11:12:07.708Z,38.83
2019-05-03T11:14:36.554Z,42.86
2019-05-03T11:17:05.770Z,43.58
2019-05-03T11:19:34.883Z,43.19
2019-05-03T11:22:05.424Z,41.76
2019-05-03T11:24:36.582Z,40.04
2019-05-03T11:27:09.237Z,40.57
2019-05-03T11:29:38.618Z,37.96
2019-05-03T11:32:11.045Z,37.42
2019-05-03T11:34:47.573Z,37.36
2019-05-03T11:37:20.920Z,38.80
2019-05-03T11:39:50.768Z,40.08
2019-05-03T11:42:21.555Z,40.91
2019-05-03T11:44:51.232Z,42.45
2019-05-03T11:47:20.420Z,43.22
2019-05-03T11:49:49.819Z,42.13
2019-05-03T11:52:19.182Z,43.20
2019-05-03T11:54:56.158Z,42.62
2019-05-03T11:57:29.137Z,42.26
2019-05-03T11:59:58.669Z,39.83
2019-05-03T12:02:29.728Z,38.41
2019-05-03T12:05:07.689Z,39.57
2019-05-03T12:07:39.963Z,38.80
2019-05-03T12:10:26.718Z,39.74
2019-05-03T12:12:48.802Z,39.38
2019-05-03T12:15:22.829Z,38.69
2019-05-03T12:17:58.905Z,39.16
2019-05-03T12:20:32.394Z,40.61
2019-05-03T12:23:06.848Z,37.79
2019-05-03T12:25:39.221Z,41.11
2019-05-03T12:28:08.760Z,37.76
2019-05-03T12:30:41.187Z,37.91
2019-05-03T12:33:15.315Z,39.59
2019-05-03T12:35:47.695Z,39.58
2019-05-03T12:38:17.802Z,40.22
2019-05-03T12:40:47.362Z,39.64
2019-05-03T12:43:17.694Z,41.46
2019-05-03T12:45:47.114Z,41.08
2019-05-03T12:48:16.501Z,39.24
2019-05-03T12:50:46.720Z,39.46
2019-05-03T12:53:16.084Z,40.09
2019-05-03T12:55:45.607Z,41.24
2019-05-03T12:58:15.367Z,43.34
2019-05-03T13:01:01.827Z,42.82
2019-05-03T13:03:32.542Z,41.54
2019-05-03T13:06:04.519Z,43.72
2019-05-03T13:08:40.226Z,44.18
2019-05-03T13:11:09.515Z,45.29
2019-05-03T13:13:38.740Z,46.21
2019-05-03T13:16:10.142Z,47.94
2019-05-03T13:18:39.146Z,47.48
2019-05-03T13:21:08.185Z,47.51
2019-05-03T13:23:37.395Z,47.75
2019-05-03T13:26:06.689Z,46.77
2019-05-03T13:28:35.966Z,44.54
2019-05-03T13:31:06.191Z,44.24
2019-05-03T13:33:35.373Z,43.29
2019-05-03T13:36:06.287Z,42.12
2019-05-03T13:38:35.502Z,42.95
2019-05-03T13:41:06.589Z,43.32
2019-05-03T13:43:36.153Z,42.20
2019-05-03T13:46:05.786Z,43.59
2019-05-03T13:48:42.673Z,44.36
2019-05-03T13:51:06.246Z,43.34
2019-05-03T13:53:35.503Z,41.88
2019-05-03T13:56:05.045Z,41.18
2019-05-03T13:58:35.889Z,42.97
2019-05-03T14:01:05.860Z,41.86
2019-05-03T14:03:35.409Z,43.66
2019-05-03T14:06:08.572Z,42.93
2019-05-03T14:08:36.001Z,43.34
2019-05-03T14:11:05.325Z,43.51
2019-05-03T14:13:35.451Z,41.37
2019-05-03T14:16:05.932Z,41.63
2019-05-03T14:18:35.513Z,42.14
2019-05-03T14:21:06.856Z,42.14
2019-05-03T14:23:53.547Z,41.98
2019-05-03T14:26:24.445Z,42.82
2019-05-03T14:28:54.387Z,43.08
2019-05-03T14:31:25.035Z,42.30
2019-05-03T14:33:55.674Z,41.05
2019-05-03T14:36:25.119Z,42.72
2019-05-03T14:38:54.876Z,41.58
2019-05-03T14:41:25.421Z,41.98
2019-05-03T14:43:55.690Z,42.63
2019-05-03T14:46:32.739Z,42.75
2019-05-03T14:48:55.144Z,43.71
2019-05-03T14:51:25.383Z,44.33
2019-05-03T14:53:56.852Z,44.09
2019-05-03T14:56:26.387Z,44.18
2019-05-03T14:59:14.789Z,44.63
2019-05-03T15:01:48.573Z,45.31
2019-05-03T15:04:17.744Z,44.69
2019-05-03T15:06:46.544Z,46.01
2019-05-03T15:09:18.589Z,46.59
2019-05-03T15:11:45.958Z,47.83
2019-05-03T15:14:14.735Z,48.49
2019-05-03T15:16:45.042Z,47.80
2019-05-03T15:19:14.801Z,49.46
2019-05-03T15:21:45.273Z,50.10
2019-05-03T15:24:14.560Z,50.52
2019-05-03T15:26:44.768Z,51.17
2019-05-03T15:29:15.549Z,51.74
2019-05-03T15:31:44.808Z,50.18
2019-05-03T15:34:15.248Z,50.93
2019-05-03T15:36:49.983Z,50.57
2019-05-03T15:39:18.811Z,49.92
2019-05-03T15:41:47.674Z,50.83
2019-05-03T15:44:34.176Z,50.82
2019-05-03T15:47:09.627Z,51.77
2019-05-03T15:49:37.908Z,51.71
2019-05-03T15:52:07.264Z,52.39
2019-05-03T15:54:37.104Z,53.41
2019-05-03T15:57:14.521Z,53.06
2019-05-03T15:59:52.702Z,53.43
2019-05-03T16:02:25.015Z,53.66
2019-05-03T16:04:56.364Z,54.32
2019-05-03T16:07:30.319Z,55.23
2019-05-03T16:09:59.331Z,55.64
2019-05-03T16:12:28.235Z,55.72
2019-05-03T16:14:57.369Z,55.90
2019-05-03T16:17:26.182Z,56.12
2019-05-03T16:19:55.836Z,57.38
2019-05-03T16:22:28.539Z,57.15
2019-05-03T16:24:57.618Z,55.38
2019-05-03T16:27:31.226Z,55.25
2019-05-03T16:30:00.819Z,55.52
2019-05-03T16:32:29.817Z,55.32
2019-05-03T16:34:59.524Z,54.93
2019-05-03T16:37:28.348Z,54.38
2019-05-03T16:39:57.877Z,53.78
2019-05-03T16:42:26.732Z,53.89
2019-05-03T16:44:55.650Z,54.37
2019-05-03T16:47:25.019Z,54.41
2019-05-03T16:49:54.219Z,54.11
2019-05-03T16:52:27.853Z,54.01
2019-05-03T16:54:57.092Z,55.01
2019-05-03T16:57:28.888Z,55.04
2019-05-03T16:59:58.642Z,55.18
2019-05-03T17:02:27.988Z,54.44
2019-05-03T17:05:01.507Z,55.24
2019-05-03T17:07:42.455Z,55.92
2019-05-03T17:10:27.902Z,56.46
2019-05-03T17:12:57.038Z,56.90
2019-05-03T17:15:26.760Z,58.09
2019-05-03T17:17:55.794Z,59.72
2019-05-03T17:20:25.437Z,60.58
2019-05-03T17:23:04.485Z,60.63
2019-05-03T17:25:35.134Z,61.50
2019-05-03T17:28:06.712Z,62.17
2019-05-03T17:30:37.394Z,62.19
2019-05-03T17:33:06.388Z,61.02
2019-05-03T17:35:36.536Z,61.52
2019-05-03T17:38:05.672Z,62.09
2019-05-03T17:40:49.179Z,62.35
2019-05-03T17:43:23.233Z,62.93
2019-05-03T17:46:00.146Z,64.93
2019-05-03T17:48:29.673Z,67.41
2019-05-03T17:50:59.929Z,68.69
2019-05-03T17:53:40.070Z,69.47
2019-05-03T17:56:20.218Z,69.87
2019-05-03T17:58:51.207Z,69.88
2019-05-03T18:01:31.051Z,69.10
2019-05-03T18:04:08.856Z,68.83
2019-05-03T18:06:35.768Z,68.30
2019-05-03T18:09:14.758Z,68.18
2019-05-03T18:11:45.145Z,68.31
2019-05-03T18:14:17.695Z,68.06
2019-05-03T18:16:46.838Z,68.39
2019-05-03T18:19:15.652Z,68.55
2019-05-03T18:21:44.992Z,68.55
2019-05-03T18:24:15.367Z,69.01
2019-05-03T18:26:44.724Z,69.32
2019-05-03T18:29:14.687Z,70.14
2019-05-03T18:31:44.592Z,70.38
2019-05-03T18:34:21.548Z,69.41
2019-05-03T18:36:45.053Z,69.97
2019-05-03T18:39:15.196Z,70.19
2019-05-03T18:41:45.196Z,69.73
2019-05-03T18:44:25.372Z,69.61
2019-05-03T18:46:59.242Z,69.43
2019-05-03T18:49:29.959Z,69.13
2019-05-03T18:51:58.760Z,68.94
2019-05-03T18:54:27.902Z,69.49
2019-05-03T18:56:56.782Z,70.37
2019-05-03T18:59:28.562Z,70.70
2019-05-03T19:01:57.563Z,71.50
2019-05-03T19:04:34.735Z,71.93
2019-05-03T19:07:04.513Z,71.77
2019-05-03T19:09:40.406Z,73.88
2019-05-03T19:12:19.992Z,74.78
2019-05-03T19:14:50.461Z,74.77
2019-05-03T19:17:21.224Z,74.97
2019-05-03T19:19:57.673Z,74.89
2019-05-03T19:22:27.006Z,75.66
2019-05-03T19:24:56.444Z,76.62
2019-05-03T19:27:26.063Z,78.15
2019-05-03T19:29:55.541Z,80.17
2019-05-03T19:32:28.210Z,79.99
2019-05-03T19:34:58.566Z,81.07
2019-05-03T19:37:29.849Z,81.40
2019-05-03T19:39:58.822Z,81.97
2019-05-03T19:42:27.617Z,82.93
2019-05-03T19:44:56.748Z,83.48
2019-05-03T19:47:25.781Z,82.32
2019-05-03T19:49:55.313Z,82.56
2019-05-03T19:52:42.093Z,82.65
2019-05-03T19:55:15.404Z,82.72
2019-05-03T19:57:47.510Z,82.81
2019-05-03T20:00:17.985Z,82.34
2019-05-03T20:02:54.785Z,82.58
2019-05-03T20:05:48.248Z,82.67
2019-05-03T20:08:20.462Z,82.12
2019-05-03T20:10:50.526Z,82.49
2019-05-03T20:13:32.037Z,83.04
2019-05-03T20:15:51.849Z,83.21
2019-05-03T20:18:24.678Z,83.37
2019-05-03T20:20:55.344Z,83.93
2019-05-03T20:23:25.418Z,83.96
2019-05-03T20:25:58.580Z,84.30
2019-05-03T20:28:33.163Z,84.62
2019-05-03T20:31:04.998Z,84.78
2019-05-03T20:33:36.088Z,85.14
2019-05-03T20:36:12.748Z,84.70
2019-05-03T20:38:41.777Z,84.35
2019-05-03T20:41:10.676Z,84.61
2019-05-03T20:43:46.810Z,84.18
2019-05-03T20:46:17.244Z,84.17
2019-05-03T20:48:47.580Z,84.73
2019-05-03T20:51:16.434Z,84.27
2019-05-03T20:53:45.388Z,84.29
2019-05-03T20:56:15.449Z,84.06
2019-05-03T20:58:44.712Z,84.28
2019-05-03T21:01:15.300Z,84.26
2019-05-03T21:03:45.626Z,84.03
2019-05-03T21:06:16.495Z,83.86
2019-05-03T21:08:52.908Z,83.89
2019-05-03T21:11:19.968Z,84.31
2019-05-03T21:13:50.099Z,84.32
2019-05-03T21:16:22.095Z,84.58
2019-05-03T21:18:54.294Z,84.83
2019-05-03T21:21:29.344Z,84.67
2019-05-03T21:24:04.583Z,85.17
2019-05-03T21:26:34.613Z,85.08
2019-05-03T21:29:04.747Z,85.24
2019-05-03T21:31:35.239Z,84.98
2019-05-03T21:34:05.631Z,85.36
2019-05-03T21:36:34.932Z,85.35
2019-05-03T21:39:05.774Z,85.48
2019-05-03T21:41:35.246Z,85.05
2019-05-03T21:44:05.923Z,84.64
2019-05-03T21:46:36.229Z,83.53
2019-05-03T21:49:06.567Z,83.12
2019-05-03T21:51:35.342Z,83.19
2019-05-03T21:54:06.857Z,83.00
2019-05-03T21:56:49.779Z,83.04
2019-05-03T21:59:19.739Z,83.24
2019-05-03T22:01:51.088Z,83.87
2019-05-03T22:04:19.983Z,84.87
2019-05-03T22:06:49.954Z,86.56
2019-05-03T22:09:18.918Z,86.24
2019-05-03T22:11:48.987Z,86.17
2019-05-03T22:14:19.650Z,85.79
2019-05-03T22:16:50.705Z,85.13
2019-05-03T22:19:19.695Z,84.39
2019-05-03T22:21:55.251Z,84.31
2019-05-03T22:24:28.770Z,83.58
2019-05-03T22:27:07.001Z,83.78
2019-05-03T22:29:35.720Z,83.83
2019-05-03T22:32:05.410Z,83.55
2019-05-03T22:34:34.862Z,83.05
2019-05-03T22:37:03.796Z,83.06
2019-05-03T22:39:32.685Z,83.24
2019-05-03T22:42:01.711Z,82.89
2019-05-03T22:44:30.449Z,83.11
2019-05-03T22:46:59.197Z,83.33
2019-05-03T22:49:27.976Z,83.40
2019-05-03T22:51:56.748Z,83.25
2019-05-03T22:54:25.502Z,83.44
2019-05-03T22:56:55.475Z,83.66
2019-05-03T22:59:25.189Z,83.52
2019-05-03T23:01:54.749Z,83.90
2019-05-03T23:04:25.331Z,84.21
2019-05-03T23:06:55.628Z,85.20
2019-05-03T23:09:25.003Z,85.81
2019-05-03T23:11:55.434Z,85.51
2019-05-03T23:14:25.531Z,85.19
2019-05-03T23:16:54.484Z,85.21
2019-05-03T23:19:23.367Z,85.06
2019-05-03T23:21:54.446Z,85.02
2019-05-03T23:24:24.734Z,85.23
2019-05-03T23:26:53.547Z,85.04
2019-05-03T23:29:22.330Z,85.15
2019-05-03T23:31:51.104Z,85.48
2019-05-03T23:34:20.197Z,85.01
2019-05-03T23:36:49.078Z,84.87
2019-05-03T23:39:17.915Z,84.91
2019-05-03T23:41:46.678Z,85.23
2019-05-03T23:44:15.484Z,84.92
2019-05-03T23:47:02.075Z,85.33
2019-05-03T23:49:30.885Z,84.96
2019-05-03T23:52:04.535Z,84.97
2019-05-03T23:54:33.735Z,85.09
2019-05-03T23:57:02.458Z,85.19
2019-05-03T23:59:31.202Z,85.11
